createdAt,value
2018-09-29T00:00:58.152Z,102845.42
2018-09-29T00:03:27.304Z,102847.06
2018-09-29T00:05:56.404Z,102848.93
2018-09-29T00:08:25.636Z,102847.75
2018-09-29T00:10:54.752Z,102842.86
2018-09-29T00:13:23.869Z,102839.90
2018-09-29T00:15:53.090Z,102840.36
2018-09-29T00:18:22.195Z,102834.66
2018-09-29T00:20:51.304Z,102842.45
2018-09-29T00:23:20.439Z,102835.34
2018-09-29T00:25:49.565Z,102839.59
2018-09-29T00:28:18.775Z,102831.73
2018-09-29T00:30:47.981Z,102830.76
2018-09-29T00:33:17.107Z,102822.83
2018-09-29T00:35:46.268Z,102822.47
2018-09-29T00:38:15.403Z,102820.82
2018-09-29T00:40:44.528Z,102828.86
2018-09-29T00:43:14.651Z,102826.75
2018-09-29T00:45:43.818Z,102827.02
2018-09-29T00:48:13.013Z,102823.41
2018-09-29T00:50:42.647Z,102826.15
2018-09-29T00:53:11.781Z,102830.55
2018-09-29T00:55:40.904Z,102825.52
2018-09-29T00:58:10.058Z,102831.67
2018-09-29T01:00:39.180Z,102835.18
2018-09-29T01:03:08.419Z,102834.27
2018-09-29T01:05:37.525Z,102829.14
2018-09-29T01:08:06.673Z,102835.69
2018-09-29T01:10:35.781Z,102832.88
2018-09-29T01:13:04.878Z,102827.19
2018-09-29T01:15:34.116Z,102828.52
2018-09-29T01:18:03.328Z,102833.28
2018-09-29T01:20:32.504Z,102834.83
2018-09-29T01:23:01.621Z,102830.50
2018-09-29T01:25:30.766Z,102839.32
2018-09-29T01:28:00.890Z,102838.50
2018-09-29T01:30:30.181Z,102840.31
2018-09-29T01:32:59.268Z,102845.56
2018-09-29T01:35:28.437Z,102837.29
2018-09-29T01:37:57.591Z,102842.48
2018-09-29T01:40:26.721Z,102835.12
2018-09-29T01:42:55.813Z,102833.00
2018-09-29T01:45:24.965Z,102832.16
2018-09-29T01:47:54.083Z,102830.20
2018-09-29T01:50:23.236Z,102829.09
2018-09-29T01:52:52.388Z,102824.69
2018-09-29T01:55:21.515Z,102833.64
2018-09-29T01:57:51.700Z,102833.16
2018-09-29T02:00:20.916Z,102835.73
2018-09-29T02:02:50.037Z,102837.86
2018-09-29T02:05:19.284Z,102833.97
2018-09-29T02:07:48.419Z,102828.75
2018-09-29T02:10:17.994Z,102830.57
2018-09-29T02:15:43.865Z,102828.75
2018-09-29T02:18:13.024Z,102819.54
2018-09-29T02:20:42.237Z,102826.63
2018-09-29T02:23:11.379Z,102820.33
2018-09-29T02:25:40.554Z,102826.49
2018-09-29T02:28:09.663Z,102826.56
2018-09-29T02:30:38.849Z,102826.13
2018-09-29T02:33:08.009Z,102821.97
2018-09-29T02:35:37.495Z,102818.41
2018-09-29T02:38:06.957Z,102815.45
2018-09-29T02:40:36.123Z,102809.77
2018-09-29T02:43:05.747Z,102808.84
2018-09-29T02:45:34.856Z,102811.94
2018-09-29T02:48:03.956Z,102810.96
2018-09-29T02:50:33.103Z,102813.95
2018-09-29T02:53:02.437Z,102815.28
2018-09-29T02:55:31.588Z,102813.34
2018-09-29T02:58:00.704Z,102807.47
2018-09-29T03:00:30.109Z,102811.47
2018-09-29T03:02:59.304Z,102806.61
2018-09-29T03:05:28.448Z,102820.73
2018-09-29T03:07:57.602Z,102821.84
2018-09-29T03:10:27.608Z,102831.09
2018-09-29T03:12:56.760Z,102831.09
2018-09-29T03:15:25.888Z,102828.94
2018-09-29T03:17:54.979Z,102833.61
2018-09-29T03:20:24.100Z,102834.43
2018-09-29T03:22:53.236Z,102841.23
2018-09-29T03:25:22.340Z,102829.45
2018-09-29T03:27:51.590Z,102827.47
2018-09-29T03:30:20.757Z,102828.75
2018-09-29T03:32:49.836Z,102833.02
2018-09-29T03:35:18.983Z,102834.08
2018-09-29T03:37:48.163Z,102827.41
2018-09-29T03:40:17.313Z,102834.20
2018-09-29T03:42:46.420Z,102832.81
2018-09-29T03:45:15.680Z,102825.01
2018-09-29T03:47:44.792Z,102826.82
2018-09-29T03:50:13.897Z,102819.41
2018-09-29T03:52:43.688Z,102827.75
2018-09-29T03:55:12.786Z,102824.39
2018-09-29T03:57:41.916Z,102823.63
2018-09-29T04:00:11.075Z,102826.01
2018-09-29T04:02:40.208Z,102825.72
2018-09-29T04:05:09.324Z,102827.05
2018-09-29T04:07:38.574Z,102828.25
2018-09-29T04:10:07.744Z,102823.69
2018-09-29T04:12:36.881Z,102819.11
2018-09-29T04:15:06.456Z,102820.66
2018-09-29T04:17:35.556Z,102821.86
2018-09-29T04:20:05.020Z,102817.23
2018-09-29T04:22:34.173Z,102822.52
2018-09-29T04:25:03.288Z,102822.66
2018-09-29T04:27:32.512Z,102821.86
2018-09-29T04:30:01.653Z,102822.27
2018-09-29T04:32:30.801Z,102820.20
2018-09-29T04:34:59.920Z,102816.20
2018-09-29T04:37:29.068Z,102826.77
2018-09-29T04:39:58.225Z,102827.19
2018-09-29T04:42:27.369Z,102819.88
2018-09-29T04:44:56.525Z,102833.84
2018-09-29T04:47:25.644Z,102818.65
2018-09-29T04:49:55.026Z,102826.98
2018-09-29T04:52:24.129Z,102823.27
2018-09-29T04:54:53.245Z,102824.33
2018-09-29T04:57:22.345Z,102827.14
2018-09-29T04:59:51.511Z,102821.66
2018-09-29T05:02:20.606Z,102823.06
2018-09-29T05:04:49.760Z,102827.04
2018-09-29T05:07:18.883Z,102830.63
2018-09-29T05:09:48.061Z,102825.30
2018-09-29T05:12:17.144Z,102822.92
2018-09-29T05:14:46.256Z,102816.82
2018-09-29T05:17:15.427Z,102830.77
2018-09-29T05:19:44.656Z,102836.87
2018-09-29T05:22:13.772Z,102831.12
2018-09-29T05:24:42.879Z,102835.80
2018-09-29T05:27:12.029Z,102828.39
2018-09-29T05:29:41.233Z,102829.63
2018-09-29T05:32:10.685Z,102831.89
2018-09-29T05:34:39.792Z,102827.95
2018-09-29T05:37:08.932Z,102829.85
2018-09-29T05:39:38.441Z,102820.86
2018-09-29T05:42:07.617Z,102816.05
2018-09-29T05:44:36.731Z,102808.52
2018-09-29T05:47:06.044Z,102808.16
2018-09-29T05:49:35.284Z,102805.22
2018-09-29T05:52:04.568Z,102810.92
2018-09-29T05:54:34.028Z,102821.07
2018-09-29T05:57:03.331Z,102824.45
2018-09-29T05:59:33.457Z,102826.51
2018-09-29T06:02:02.986Z,102829.06
2018-09-29T06:04:32.713Z,102834.45
2018-09-29T06:07:02.124Z,102841.47
2018-09-29T06:09:31.264Z,102840.55
2018-09-29T06:12:00.379Z,102843.52
2018-09-29T06:14:29.495Z,102845.20
2018-09-29T06:16:58.667Z,102833.45
2018-09-29T06:19:27.820Z,102828.11
2018-09-29T06:21:57.152Z,102832.88
2018-09-29T06:24:26.316Z,102835.95
2018-09-29T06:26:55.622Z,102839.73
2018-09-29T06:29:25.519Z,102829.13
2018-09-29T06:31:54.689Z,102825.48
2018-09-29T06:34:24.196Z,102826.41
2018-09-29T06:36:53.414Z,102825.36
2018-09-29T06:39:22.542Z,102831.73
2018-09-29T06:41:51.705Z,102828.08
2018-09-29T06:44:20.991Z,102826.06
2018-09-29T06:46:50.149Z,102824.34
2018-09-29T06:49:19.416Z,102825.67
2018-09-29T06:51:48.612Z,102820.47
2018-09-29T06:54:17.839Z,102812.98
2018-09-29T06:56:48.124Z,102819.80
2018-09-29T06:59:18.233Z,102825.53
2018-09-29T07:01:47.504Z,102821.28
2018-09-29T07:04:17.697Z,102818.88
2018-09-29T07:06:47.094Z,102823.48
2018-09-29T07:09:16.264Z,102830.58
2018-09-29T07:11:45.420Z,102819.98
2018-09-29T07:14:14.574Z,102821.30
2018-09-29T07:16:43.696Z,102826.61
2018-09-29T07:19:12.831Z,102825.42
2018-09-29T07:21:42.236Z,102829.91
2018-09-29T07:24:11.349Z,102829.97
2018-09-29T07:26:40.554Z,102835.22
2018-09-29T07:29:10.608Z,102832.45
2018-09-29T07:31:40.039Z,102831.98
2018-09-29T07:34:09.176Z,102829.14
2018-09-29T07:36:38.560Z,102825.50
2018-09-29T07:39:09.449Z,102835.54
2018-09-29T07:41:38.592Z,102839.25
2018-09-29T07:44:08.316Z,102844.48
2018-09-29T07:46:37.496Z,102842.13
2018-09-29T07:49:07.001Z,102844.99
2018-09-29T07:51:36.149Z,102847.67
2018-09-29T07:54:05.440Z,102849.33
2018-09-29T07:56:34.597Z,102858.38
2018-09-29T07:59:03.776Z,102854.85
2018-09-29T08:01:34.285Z,102859.03
2018-09-29T08:04:03.538Z,102858.02
2018-09-29T08:06:32.760Z,102860.67
2018-09-29T08:09:03.482Z,102860.30
2018-09-29T08:11:32.816Z,102862.42
2018-09-29T08:14:01.984Z,102853.48
2018-09-29T08:16:31.141Z,102852.77
2018-09-29T08:19:00.321Z,102860.75
2018-09-29T08:21:29.458Z,102861.67
2018-09-29T08:23:58.585Z,102857.52
2018-09-29T08:26:27.894Z,102854.58
2018-09-29T08:28:57.032Z,102852.37
2018-09-29T08:31:26.172Z,102855.66
2018-09-29T08:33:55.354Z,102854.41
2018-09-29T08:36:24.516Z,102853.14
2018-09-29T08:38:53.668Z,102843.77
2018-09-29T08:41:22.833Z,102855.01
2018-09-29T08:43:52.372Z,102853.91
2018-09-29T08:46:21.552Z,102860.87
2018-09-29T08:48:50.728Z,102857.89
2018-09-29T08:51:19.913Z,102856.67
2018-09-29T08:53:49.180Z,102850.63
2018-09-29T08:56:18.260Z,102858.93
2018-09-29T08:58:47.524Z,102856.34
2018-09-29T09:01:16.913Z,102847.06
2018-09-29T09:03:46.192Z,102839.92
2018-09-29T09:06:15.393Z,102841.17
2018-09-29T09:08:44.516Z,102839.46
2018-09-29T09:11:13.685Z,102841.39
2018-09-29T09:13:42.807Z,102839.38
2018-09-29T09:16:11.997Z,102834.44
2018-09-29T09:18:41.125Z,102834.84
2018-09-29T09:21:10.284Z,102832.73
2018-09-29T09:23:39.511Z,102831.69
2018-09-29T09:26:09.248Z,102838.64
2018-09-29T09:28:38.533Z,102832.33
2018-09-29T09:31:08.212Z,102823.55
2018-09-29T09:33:37.863Z,102825.08
2018-09-29T09:36:08.161Z,102823.22
2018-09-29T09:38:37.404Z,102814.29
2018-09-29T09:41:06.640Z,102815.94
2018-09-29T09:43:36.051Z,102818.52
2018-09-29T09:46:05.975Z,102813.81
2018-09-29T09:48:36.099Z,102820.23
2018-09-29T09:51:05.365Z,102813.54
2018-09-29T09:53:34.605Z,102807.66
2018-09-29T09:56:03.906Z,102806.55
2018-09-29T09:58:33.140Z,102799.95
2018-09-29T10:01:07.684Z,102796.55
2018-09-29T10:03:45.842Z,102797.52
2018-09-29T10:06:15.018Z,102793.78
2018-09-29T10:08:44.203Z,102785.84
2018-09-29T10:11:17.708Z,102784.45
2018-09-29T10:13:46.911Z,102778.55
2018-09-29T10:16:16.080Z,102776.08
2018-09-29T10:18:45.273Z,102776.61
2018-09-29T10:21:14.453Z,102776.83
2018-09-29T10:23:43.628Z,102766.13
2018-09-29T10:26:12.785Z,102759.36
2018-09-29T10:28:41.915Z,102767.08
2018-09-29T10:31:11.079Z,102759.27
2018-09-29T10:33:40.268Z,102753.13
2018-09-29T10:36:09.507Z,102757.67
2018-09-29T10:38:38.636Z,102754.34
2018-09-29T10:41:07.899Z,102756.37
2018-09-29T10:43:37.184Z,102752.78
2018-09-29T10:46:06.452Z,102750.80
2018-09-29T10:48:35.667Z,102752.89
2018-09-29T10:51:04.840Z,102747.55
2018-09-29T10:53:33.985Z,102743.49
2018-09-29T10:56:03.172Z,102737.47
2018-09-29T10:58:32.383Z,102732.91
2018-09-29T11:01:01.568Z,102734.76
2018-09-29T11:03:30.787Z,102731.53
2018-09-29T11:05:59.938Z,102733.82
2018-09-29T11:08:29.502Z,102732.78
2018-09-29T11:10:58.632Z,102728.32
2018-09-29T11:13:27.960Z,102725.93
2018-09-29T11:15:57.522Z,102723.44
2018-09-29T11:18:27.372Z,102718.32
2018-09-29T11:20:56.729Z,102723.44
2018-09-29T11:23:25.914Z,102717.94
2018-09-29T11:28:36.988Z,102710.31
2018-09-29T11:31:06.225Z,102708.76
2018-09-29T11:33:36.639Z,102701.07
2018-09-29T11:36:07.057Z,102697.02
2018-09-29T11:38:36.483Z,102699.59
2018-09-29T11:43:48.654Z,102684.30
2018-09-29T11:46:18.649Z,102678.28
2018-09-29T11:48:48.700Z,102668.41
2018-09-29T11:51:18.154Z,102663.94
2018-09-29T11:53:48.071Z,102663.94
2018-09-29T11:56:17.544Z,102661.91
2018-09-29T11:58:46.815Z,102654.09
2018-09-29T12:03:54.943Z,102650.00
2018-09-29T12:06:26.952Z,102651.33
2018-09-29T12:08:56.673Z,102652.09
2018-09-29T12:11:26.264Z,102641.11
2018-09-29T12:13:55.760Z,102641.34
2018-09-29T12:16:24.965Z,102634.41
2018-09-29T12:18:54.121Z,102632.95
2018-09-29T12:21:23.435Z,102631.62
2018-09-29T12:23:52.580Z,102617.17
2018-09-29T12:26:22.207Z,102615.39
2018-09-29T12:28:51.453Z,102610.09
2018-09-29T12:31:20.773Z,102601.72
2018-09-29T12:33:49.931Z,102598.30
2018-09-29T12:36:19.177Z,102594.62
2018-09-29T12:38:48.304Z,102589.09
2018-09-29T12:41:17.492Z,102588.84
2018-09-29T12:43:46.707Z,102586.91
2018-09-29T12:46:15.865Z,102591.74
2018-09-29T12:48:45.013Z,102590.62
2018-09-29T12:51:14.219Z,102586.72
2018-09-29T12:53:43.797Z,102590.61
2018-09-29T12:56:13.087Z,102584.37
2018-09-29T12:58:42.265Z,102578.55
2018-09-29T13:01:11.397Z,102579.73
2018-09-29T13:03:40.565Z,102574.94
2018-09-29T13:06:09.783Z,102563.42
2018-09-29T13:08:39.045Z,102558.64
2018-09-29T13:11:08.559Z,102552.80
2018-09-29T13:16:18.865Z,102543.66
2018-09-29T13:18:48.056Z,102538.47
2018-09-29T13:21:17.304Z,102546.22
2018-09-29T13:23:46.797Z,102544.52
2018-09-29T13:26:15.951Z,102547.01
2018-09-29T13:28:45.090Z,102539.05
2018-09-29T13:31:14.243Z,102537.00
2018-09-29T13:33:43.484Z,102531.92
2018-09-29T13:36:18.801Z,102527.66
2018-09-29T13:38:49.376Z,102530.71
2018-09-29T13:41:18.529Z,102528.28
2018-09-29T13:43:47.720Z,102531.34
2018-09-29T13:46:16.917Z,102525.66
2018-09-29T13:48:46.090Z,102522.86
2018-09-29T13:51:15.216Z,102519.22
2018-09-29T13:53:44.450Z,102518.34
2018-09-29T13:56:13.572Z,102516.77
2018-09-29T13:58:42.721Z,102509.82
2018-09-29T14:01:12.264Z,102506.75
2018-09-29T14:03:41.709Z,102502.84
2018-09-29T14:06:10.912Z,102500.17
2018-09-29T14:08:40.288Z,102492.77
2018-09-29T14:11:09.412Z,102491.30
2018-09-29T14:13:38.545Z,102487.80
2018-09-29T14:16:07.864Z,102488.73
2018-09-29T14:18:37.026Z,102483.07
2018-09-29T14:21:06.301Z,102474.29
2018-09-29T14:23:35.694Z,102482.57
2018-09-29T14:26:04.895Z,102473.63
2018-09-29T14:28:34.416Z,102468.91
2018-09-29T14:31:03.521Z,102461.09
2018-09-29T14:33:32.593Z,102455.61
2018-09-29T14:36:01.739Z,102457.53
2018-09-29T14:38:30.891Z,102454.82
2018-09-29T14:41:00.024Z,102450.00
2018-09-29T14:43:29.135Z,102445.29
2018-09-29T14:45:58.436Z,102444.39
2018-09-29T14:48:27.579Z,102438.52
2018-09-29T14:50:57.786Z,102433.41
2018-09-29T14:56:08.302Z,102428.64
2018-09-29T14:58:37.712Z,102425.41
2018-09-29T15:01:07.294Z,102425.41
2018-09-29T15:03:36.436Z,102423.70
2018-09-29T15:06:06.689Z,102419.87
2018-09-29T15:08:35.936Z,102412.32
2018-09-29T15:11:05.037Z,102413.36
2018-09-29T15:13:34.209Z,102407.47
2018-09-29T15:16:03.386Z,102402.99
2018-09-29T15:18:32.524Z,102406.20
2018-09-29T15:21:01.688Z,102402.31
2018-09-29T15:23:30.851Z,102398.95
2018-09-29T15:26:00.608Z,102391.73
2018-09-29T15:28:30.405Z,102395.29
2018-09-29T15:30:59.645Z,102393.17
2018-09-29T15:33:28.799Z,102386.00
2018-09-29T15:35:58.268Z,102389.08
2018-09-29T15:38:27.474Z,102389.62
2018-09-29T15:40:56.676Z,102389.67
2018-09-29T15:43:25.935Z,102386.13
2018-09-29T15:45:55.412Z,102380.92
2018-09-29T15:48:24.543Z,102378.49
2018-09-29T15:50:53.670Z,102375.95
2018-09-29T15:53:22.852Z,102373.39
2018-09-29T15:58:29.778Z,102369.74
2018-09-29T16:00:59.032Z,102368.79
2018-09-29T16:03:28.246Z,102360.50
2018-09-29T16:05:57.370Z,102365.75
2018-09-29T16:08:26.728Z,102369.67
2018-09-29T16:10:56.072Z,102370.57
2018-09-29T16:13:25.263Z,102364.44
2018-09-29T16:15:54.385Z,102361.20
2018-09-29T16:18:23.585Z,102363.26
2018-09-29T16:20:52.849Z,102361.80
2018-09-29T16:23:22.072Z,102356.41
2018-09-29T16:25:51.208Z,102361.10
2018-09-29T16:28:20.376Z,102370.18
2018-09-29T16:30:49.756Z,102366.23
2018-09-29T16:33:18.928Z,102363.69
2018-09-29T16:35:48.160Z,102359.98
2018-09-29T16:38:17.797Z,102349.29
2018-09-29T16:40:47.133Z,102365.08
2018-09-29T16:43:16.306Z,102363.84
2018-09-29T16:45:45.545Z,102370.16
2018-09-29T16:48:14.924Z,102367.96
2018-09-29T16:50:44.191Z,102359.53
2018-09-29T16:53:13.476Z,102362.20
2018-09-29T16:55:42.823Z,102357.98
2018-09-29T17:00:53.923Z,102356.31
2018-09-29T17:03:23.930Z,102350.98
2018-09-29T17:05:53.231Z,102349.27
2018-09-29T17:08:22.498Z,102352.30
2018-09-29T17:10:51.790Z,102348.87
2018-09-29T17:13:21.980Z,102351.83
2018-09-29T17:15:51.950Z,102349.74
2018-09-29T17:18:21.109Z,102345.55
2018-09-29T17:20:50.771Z,102347.50
2018-09-29T17:23:19.905Z,102345.81
2018-09-29T17:25:49.347Z,102347.53
2018-09-29T17:28:18.669Z,102344.09
2018-09-29T17:30:47.891Z,102343.14
2018-09-29T17:33:17.035Z,102345.58
2018-09-29T17:35:46.269Z,102344.70
2018-09-29T17:38:15.441Z,102343.50
2018-09-29T17:40:44.595Z,102339.08
2018-09-29T17:43:13.819Z,102342.91
2018-09-29T17:45:43.046Z,102341.50
2018-09-29T17:48:12.396Z,102336.69
2018-09-29T17:50:41.611Z,102334.87
2018-09-29T17:53:10.818Z,102337.56
2018-09-29T17:55:40.064Z,102334.64
2018-09-29T17:58:09.200Z,102325.39
2018-09-29T18:00:38.473Z,102323.23
2018-09-29T18:03:07.698Z,102325.39
2018-09-29T18:05:36.909Z,102322.09
2018-09-29T18:08:06.412Z,102326.09
2018-09-29T18:10:35.611Z,102324.48
2018-09-29T18:13:04.825Z,102322.20
2018-09-29T18:15:33.927Z,102322.94
2018-09-29T18:18:03.172Z,102322.77
2018-09-29T18:20:32.337Z,102317.78
2018-09-29T18:23:01.574Z,102323.88
2018-09-29T18:25:30.791Z,102327.09
2018-09-29T18:28:00.170Z,102329.34
2018-09-29T18:30:29.421Z,102326.04
2018-09-29T18:32:58.568Z,102330.44
2018-09-29T18:35:27.965Z,102328.87
2018-09-29T18:37:57.123Z,102324.56
2018-09-29T18:40:26.301Z,102323.78
2018-09-29T18:42:55.502Z,102322.49
2018-09-29T18:45:24.695Z,102320.41
2018-09-29T18:47:53.917Z,102321.02
2018-09-29T18:50:23.062Z,102323.40
2018-09-29T18:52:52.509Z,102324.73
2018-09-29T18:55:21.697Z,102323.10
2018-09-29T18:57:52.995Z,102320.56
2018-09-29T19:00:22.172Z,102317.19
2018-09-29T19:02:51.308Z,102316.58
2018-09-29T19:05:20.548Z,102316.98
2018-09-29T19:07:49.845Z,102309.34
2018-09-29T19:10:19.021Z,102312.23
2018-09-29T19:12:48.347Z,102311.08
2018-09-29T19:15:17.768Z,102312.27
2018-09-29T19:17:47.047Z,102312.09
2018-09-29T19:20:16.236Z,102313.45
2018-09-29T19:22:45.592Z,102315.49
2018-09-29T19:25:14.856Z,102305.47
2018-09-29T19:27:45.024Z,102298.47
2018-09-29T19:30:14.518Z,102296.83
2018-09-29T19:32:44.664Z,102295.15
2018-09-29T19:35:13.932Z,102296.80
2018-09-29T19:37:43.200Z,102297.65
2018-09-29T19:40:12.710Z,102288.79
2018-09-29T19:42:42.123Z,102282.81
2018-09-29T19:45:11.273Z,102273.63
2018-09-29T19:47:40.437Z,102273.94
2018-09-29T19:50:09.560Z,102274.03
2018-09-29T19:52:38.753Z,102282.07
2018-09-29T19:55:08.032Z,102279.09
2018-09-29T19:57:37.277Z,102277.31
2018-09-29T20:00:06.769Z,102274.55
2018-09-29T20:02:35.977Z,102273.24
2018-09-29T20:05:05.475Z,102267.29
2018-09-29T20:07:34.697Z,102260.73
2018-09-29T20:10:03.980Z,102259.25
2018-09-29T20:12:33.131Z,102258.25
2018-09-29T20:15:02.547Z,102255.79
2018-09-29T20:17:33.726Z,102255.77
2018-09-29T20:20:04.064Z,102254.25
2018-09-29T20:22:33.197Z,102247.92
2018-09-29T20:25:02.340Z,102246.44
2018-09-29T20:27:31.510Z,102244.45
2018-09-29T20:30:00.652Z,102240.63
2018-09-29T20:32:33.685Z,102244.83
2018-09-29T20:35:02.804Z,102236.16
2018-09-29T20:37:31.951Z,102232.98
2018-09-29T20:40:01.071Z,102238.52
2018-09-29T20:42:30.219Z,102231.30
2018-09-29T20:44:59.383Z,102238.34
2018-09-29T20:47:28.574Z,102231.31
2018-09-29T20:49:57.700Z,102232.67
2018-09-29T20:52:26.925Z,102232.86
2018-09-29T20:54:56.075Z,102230.66
2018-09-29T20:57:25.337Z,102225.33
2018-09-29T20:59:54.507Z,102223.00
2018-09-29T21:02:23.848Z,102217.66
2018-09-29T21:04:53.072Z,102221.66
2018-09-29T21:07:22.188Z,102217.81
2018-09-29T21:09:51.357Z,102218.34
2018-09-29T21:12:20.496Z,102215.33
2018-09-29T21:14:49.630Z,102211.98
2018-09-29T21:17:18.738Z,102208.50
2018-09-29T21:19:47.941Z,102203.30
2018-09-29T21:22:17.168Z,102201.80
2018-09-29T21:24:46.331Z,102197.31
2018-09-29T21:27:15.461Z,102201.45
2018-09-29T21:29:44.642Z,102199.92
2018-09-29T21:32:13.761Z,102193.11
2018-09-29T21:34:43.966Z,102189.59
2018-09-29T21:37:13.429Z,102187.91
2018-09-29T21:39:42.548Z,102191.27
2018-09-29T21:42:11.752Z,102181.42
2018-09-29T21:44:41.024Z,102179.91
2018-09-29T21:47:10.781Z,102176.24
2018-09-29T21:49:40.230Z,102162.72
2018-09-29T21:52:09.563Z,102163.22
2018-09-29T21:54:38.776Z,102155.89
2018-09-29T21:57:07.903Z,102151.55
2018-09-29T21:59:37.052Z,102150.88
2018-09-29T22:02:06.603Z,102146.22
2018-09-29T22:04:35.765Z,102142.52
2018-09-29T22:07:05.119Z,102131.53
2018-09-29T22:09:34.216Z,102130.67
2018-09-29T22:12:03.424Z,102130.52
2018-09-29T22:14:32.592Z,102131.68
2018-09-29T22:17:01.709Z,102126.68
2018-09-29T22:19:30.825Z,102124.01
2018-09-29T22:22:00.128Z,102127.69
2018-09-29T22:24:29.290Z,102129.67
2018-09-29T22:26:58.397Z,102118.01
2018-09-29T22:29:27.646Z,102108.98
2018-09-29T22:31:56.825Z,102111.34
2018-09-29T22:34:26.030Z,102108.50
2018-09-29T22:36:55.210Z,102107.48
2018-09-29T22:39:24.372Z,102104.81
2018-09-29T22:41:53.600Z,102105.32
2018-09-29T22:44:22.730Z,102090.79
2018-09-29T22:46:51.861Z,102091.81
2018-09-29T22:49:20.996Z,102084.29
2018-09-29T22:51:50.204Z,102091.47
2018-09-29T22:54:19.336Z,102085.28
2018-09-29T22:56:48.555Z,102080.12
2018-09-29T22:59:17.745Z,102077.77
2018-09-29T23:01:46.911Z,102079.78
2018-09-29T23:04:16.000Z,102077.45
2018-09-29T23:06:45.119Z,102072.94
2018-09-29T23:09:14.245Z,102067.95
2018-09-29T23:11:43.431Z,102067.78
2018-09-29T23:14:12.754Z,102056.94
2018-09-29T23:16:41.810Z,102057.95
2018-09-29T23:19:11.070Z,102053.78
2018-09-29T23:21:40.132Z,102058.61
2018-09-29T23:24:09.328Z,102053.45
2018-09-29T23:26:38.439Z,102046.41
2018-09-29T23:29:07.553Z,102051.09
2018-09-29T23:31:36.740Z,102045.92
2018-09-29T23:34:06.189Z,102042.06
2018-09-29T23:36:35.295Z,102041.07
2018-09-29T23:39:05.971Z,102042.23
2018-09-29T23:41:35.097Z,102038.22
2018-09-29T23:44:04.212Z,102032.03
2018-09-29T23:46:33.357Z,102031.86
2018-09-29T23:49:02.438Z,102030.05
2018-09-29T23:51:31.568Z,102025.20
2018-09-29T23:54:00.933Z,102025.03
2018-09-29T23:56:30.104Z,102015.70
2018-09-29T23:58:59.250Z,102007.70
